Time;durP1;ratioP1;P1;durP2;ratioP2;P2;SDS_P1;SDS_P2;PMS_P1;PMS_P2;Temp;Humidity;BMP_temperature;BMP_pressure;BME280_temperature;BME280_humidity;BME280_pressure;Samples;Min_cycle;Max_cycle;Signal;HPM_P1;HPM_P2
2023/09/14 00:00:08;;;;;;;4.07;1.50;;;;;;;24.21;48.36;102192.09;4988148;28;20398;-64
2023/09/14 00:02:33;;;;;;;3.67;1.40;;;;;;;24.21;47.91;102189.44;4988472;28;20030;-64
2023/09/14 00:04:58;;;;;;;3.20;1.38;;;;;;;24.20;47.83;102193.94;4988336;28;20030;-68
2023/09/14 00:07:24;;;;;;;4.97;1.90;;;;;;;24.20;48.12;102187.78;4988519;28;20034;-68
2023/09/14 00:09:49;;;;;;;4.22;1.65;;;;;;;24.21;48.24;102190.31;4988209;28;20026;-67
2023/09/14 00:12:14;;;;;;;3.78;1.30;;;;;;;24.18;47.96;102185.25;4987478;28;20430;-68
2023/09/14 00:14:40;;;;;;;4.95;1.80;;;;;;;24.17;47.46;102194.19;4986904;28;20053;-65
2023/09/14 00:17:06;;;;;;;4.13;1.50;;;;;;;24.17;48.17;102198.69;4987911;28;20072;-66
2023/09/14 00:19:31;;;;;;;4.32;1.50;;;;;;;24.18;47.57;102198.56;4988103;28;20102;-67
2023/09/14 00:21:56;;;;;;;3.90;1.42;;;;;;;24.16;47.76;102197.81;4970420;28;20067;-66
2023/09/14 00:24:22;;;;;;;3.97;1.45;;;;;;;24.16;47.90;102197.00;4987871;28;20034;-69
2023/09/14 00:26:47;;;;;;;3.45;1.50;;;;;;;24.16;47.71;102195.16;4987895;28;20746;-68
2023/09/14 00:29:12;;;;;;;4.18;1.42;;;;;;;24.15;47.60;102193.50;4987542;28;20038;-66
2023/09/14 00:31:38;;;;;;;3.93;1.33;;;;;;;24.15;47.46;102197.97;4987838;28;20149;-67
2023/09/14 00:34:04;;;;;;;4.97;1.60;;;;;;;24.14;48.02;102191.78;4987784;28;20338;-65
2023/09/14 00:36:30;;;;;;;3.90;1.58;;;;;;;24.13;47.90;102191.94;4987740;28;20034;-66
2023/09/14 00:38:55;;;;;;;4.22;1.60;;;;;;;24.13;47.93;102194.59;4987772;28;20034;-65
2023/09/14 00:41:20;;;;;;;4.85;1.80;;;;;;;24.11;47.48;102193.88;4987903;28;20117;-68
2023/09/14 00:43:46;;;;;;;3.67;1.52;;;;;;;24.13;47.74;102191.94;4987388;28;20038;-65
2023/09/14 00:46:11;;;;;;;3.40;1.48;;;;;;;24.11;47.42;102188.56;4987689;28;20073;-65
2023/09/14 00:48:37;;;;;;;4.10;1.70;;;;;;;24.12;47.58;102190.25;4987546;28;20057;-68
2023/09/14 00:51:05;;;;;;;4.70;1.55;;;;;;;24.09;47.71;102192.19;4987668;28;20031;-65
2023/09/14 00:53:31;;;;;;;4.25;1.65;;;;;;;24.09;47.35;102196.69;4987064;28;20037;-68
2023/09/14 00:55:57;;;;;;;4.40;1.60;;;;;;;24.09;47.75;102188.69;4987288;28;20046;-66
2023/09/14 00:58:22;;;;;;;4.03;1.75;;;;;;;24.08;47.48;102185.19;4987080;28;20069;-65
2023/09/14 01:00:48;;;;;;;3.78;1.60;;;;;;;24.09;47.07;102188.69;4987467;28;20025;-65
2023/09/14 01:03:14;;;;;;;4.15;1.73;;;;;;;24.08;47.31;102189.66;4987464;28;20026;-64
2023/09/14 01:05:40;;;;;;;6.07;1.50;;;;;;;24.07;47.23;102194.16;4987473;28;20116;-64
2023/09/14 01:08:06;;;;;;;3.40;1.40;;;;;;;24.07;47.44;102190.66;4987203;28;20569;-66
2023/09/14 01:10:31;;;;;;;3.83;1.70;;;;;;;24.06;47.01;102189.78;4987343;28;20108;-64
2023/09/14 01:12:57;;;;;;;3.63;1.45;;;;;;;24.06;47.11;102194.28;4986918;28;20034;-65
2023/09/14 01:15:25;;;;;;;3.83;1.63;;;;;;;24.06;47.40;102196.94;4987406;28;20049;-68
2023/09/14 01:18:12;;;;;;;4.50;1.63;;;;;;;24.05;47.00;102196.13;4987036;28;20034;-65
2023/09/14 01:21:12;;;;;;;4.47;1.55;;;;;;;24.04;47.21;102196.25;4986405;28;20096;-66
2023/09/14 01:23:54;;;;;;;4.38;1.33;;;;;;;24.02;46.97;102201.69;4986734;28;20567;-67
2023/09/14 01:26:20;;;;;;;3.97;1.45;;;;;;;24.04;46.89;102199.75;4986305;28;20390;-66
2023/09/14 01:28:45;;;;;;;3.33;1.50;;;;;;;24.02;47.25;102200.84;4986491;28;20030;-69
2023/09/14 01:31:11;;;;;;;3.85;1.50;;;;;;;24.03;46.89;102198.03;4985878;28;20185;-64
2023/09/14 01:33:37;;;;;;;4.07;1.63;;;;;;;24.02;47.22;102196.38;4986684;28;20125;-67
2023/09/14 01:36:12;;;;;;;5.03;1.65;;;;;;;23.99;46.77;102191.31;4986552;28;20030;-65
2023/09/14 01:38:38;;;;;;;5.57;1.70;;;;;;;24.01;46.79;102197.34;4986306;28;20045;-65
2023/09/14 01:41:04;;;;;;;4.57;1.52;;;;;;;23.99;47.32;102196.63;4986430;28;20034;-67
2023/09/14 01:43:31;;;;;;;4.57;1.65;;;;;;;24.00;46.68;102194.81;4986489;28;20030;-68
2023/09/14 01:45:56;;;;;;;3.30;1.42;;;;;;;24.01;46.81;102193.84;4986171;28;20089;-64
2023/09/14 01:48:22;;;;;;;4.00;1.60;;;;;;;23.98;46.86;102191.44;4986668;28;20035;-64
2023/09/14 01:50:48;;;;;;;4.63;1.55;;;;;;;23.97;46.83;102185.25;4987224;28;20049;-65
2023/09/14 01:53:14;;;;;;;3.95;1.73;;;;;;;23.98;46.56;102186.13;4986863;28;20077;-66
2023/09/14 01:55:39;;;;;;;4.53;1.63;;;;;;;23.98;47.24;102196.75;4986937;28;20033;-68
2023/09/14 01:58:04;;;;;;;4.55;1.70;;;;;;;23.97;46.63;102192.41;4986723;28;20474;-67
2023/09/14 02:00:30;;;;;;;3.55;1.50;;;;;;;23.96;46.91;102196.03;4986860;28;20113;-65
2023/09/14 02:02:55;;;;;;;4.05;1.80;;;;;;;23.94;46.62;102188.19;4986585;28;20058;-67
2023/09/14 02:05:21;;;;;;;4.28;1.60;;;;;;;23.95;47.14;102197.03;4986904;28;20797;-63
2023/09/14 02:07:47;;;;;;;3.83;1.50;;;;;;;23.96;46.85;102193.38;4986653;28;20034;-64
2023/09/14 02:10:13;;;;;;;3.97;1.65;;;;;;;23.94;46.74;102192.66;4986665;28;20065;-65
2023/09/14 02:12:38;;;;;;;3.15;1.25;;;;;;;23.93;46.56;102186.50;4986664;28;20030;-64
2023/09/14 02:15:04;;;;;;;3.97;1.58;;;;;;;23.93;46.61;102196.31;4986695;28;20030;-65
2023/09/14 02:17:30;;;;;;;3.95;1.67;;;;;;;23.93;46.95;102188.34;4986470;28;20479;-67
2023/09/14 02:19:56;;;;;;;4.38;1.55;;;;;;;23.93;46.66;102188.34;4986857;28;20106;-65
2023/09/14 02:22:21;;;;;;;4.80;1.52;;;;;;;23.92;46.83;102186.63;4986505;28;20117;-66
2023/09/14 02:24:47;;;;;;;2.92;1.27;;;;;;;23.90;46.83;102174.28;4986615;28;20042;-65
2023/09/14 02:27:12;;;;;;;4.18;1.50;;;;;;;23.90;46.52;102178.78;4986514;28;20042;-65
2023/09/14 02:29:38;;;;;;;3.50;1.60;;;;;;;23.89;46.44;102174.41;4986335;28;20042;-67
2023/09/14 02:32:04;;;;;;;4.35;1.73;;;;;;;23.89;46.62;102175.28;4986203;28;20030;-67
2023/09/14 02:34:30;;;;;;;4.30;1.75;;;;;;;23.87;46.75;102177.22;4986566;28;20046;-67
2023/09/14 02:36:55;;;;;;;4.47;1.50;;;;;;;23.88;46.46;102172.75;4987982;28;20034;-64
2023/09/14 02:39:20;;;;;;;4.20;1.40;;;;;;;23.89;46.68;102174.41;4989836;28;20461;-65
2023/09/14 02:41:46;;;;;;;2.20;1.25;;;;;;;23.88;46.50;102173.59;4989851;28;20061;-64
2023/09/14 02:44:11;;;;;;;4.07;1.50;;;;;;;23.87;46.75;102169.22;4989521;28;20034;-66
2023/09/14 02:46:36;;;;;;;4.93;1.63;;;;;;;23.88;46.33;102167.44;4989745;28;20039;-66
2023/09/14 02:49:02;;;;;;;4.63;1.80;;;;;;;23.87;46.17;102169.22;4989801;28;20034;-65
2023/09/14 02:51:27;;;;;;;4.95;1.65;;;;;;;23.86;46.26;102170.22;4989888;28;20026;-64
2023/09/14 02:53:52;;;;;;;4.97;1.73;;;;;;;23.86;46.41;102170.22;4989969;28;20062;-66
2023/09/14 02:56:17;;;;;;;3.53;1.50;;;;;;;23.86;46.64;102169.34;4989735;28;20041;-67
2023/09/14 02:58:43;;;;;;;3.33;1.33;;;;;;;23.85;46.17;102170.34;4989462;28;20264;-66
2023/09/14 03:01:09;;;;;;;3.83;1.52;;;;;;;23.84;46.29;102172.13;4989519;28;20030;-64
2023/09/14 03:03:35;;;;;;;3.75;1.70;;;;;;;23.85;46.45;102175.66;4988965;28;20042;-66
2023/09/14 03:06:01;;;;;;;3.88;1.60;;;;;;;23.83;46.27;102167.81;4988867;28;20090;-67
2023/09/14 03:08:26;;;;;;;4.10;1.60;;;;;;;23.83;46.55;102174.91;4988751;28;20027;-65
2023/09/14 03:10:52;;;;;;;4.00;1.48;;;;;;;23.84;46.35;102173.97;4988850;28;20042;-68
2023/09/14 03:13:17;;;;;;;5.55;1.80;;;;;;;23.82;46.24;102170.56;4971065;28;20038;-64
2023/09/14 03:15:43;;;;;;;3.60;1.48;;;;;;;23.83;45.99;102169.56;4988572;28;20391;-67
2023/09/14 03:18:08;;;;;;;3.95;1.40;;;;;;;23.83;45.94;102164.25;4988545;28;20061;-64
2023/09/14 03:20:33;;;;;;;5.03;1.50;;;;;;;23.81;46.11;102168.88;4988594;28;20034;-68
2023/09/14 03:22:59;;;;;;;3.85;1.50;;;;;;;23.81;45.88;102169.72;4988669;28;20030;-66
2023/09/14 03:25:24;;;;;;;3.47;1.58;;;;;;;23.81;45.75;102172.38;4988477;28;20026;-64
2023/09/14 03:27:50;;;;;;;3.72;1.40;;;;;;;23.81;46.05;102179.53;4988307;28;20391;-64
2023/09/14 03:30:15;;;;;;;5.05;1.60;;;;;;;23.80;45.82;102176.03;4988605;28;20123;-69
2023/09/14 03:32:40;;;;;;;4.03;1.50;;;;;;;23.80;45.93;102175.16;4970796;28;20151;-65
2023/09/14 03:35:06;;;;;;;5.40;1.30;;;;;;;23.78;45.92;102175.28;4988985;28;20077;-69
2023/09/14 03:37:31;;;;;;;4.60;1.75;;;;;;;23.78;45.68;102177.94;4988904;28;20264;-64
2023/09/14 03:39:56;;;;;;;5.65;1.60;;;;;;;23.78;45.84;102180.63;4988257;28;20034;-65
2023/09/14 03:42:22;;;;;;;4.13;1.50;;;;;;;23.77;45.68;102173.63;4988771;28;20030;-64
2023/09/14 03:44:47;;;;;;;5.55;1.30;;;;;;;23.77;45.83;102178.94;4988646;28;20048;-65
2023/09/14 03:47:13;;;;;;;4.38;1.50;;;;;;;23.77;45.92;102180.78;4987554;28;20054;-65
2023/09/14 03:49:38;;;;;;;3.75;1.40;;;;;;;23.77;45.60;102176.28;4988635;28;20394;-65
2023/09/14 03:52:04;;;;;;;3.00;1.33;;;;;;;23.75;46.11;102174.72;4989334;28;20033;-65
2023/09/14 03:54:29;;;;;;;5.03;1.70;;;;;;;23.75;45.72;102175.59;4989105;28;20062;-67
2023/09/14 03:56:55;;;;;;;4.57;1.70;;;;;;;23.75;45.80;102175.59;4989060;28;20382;-68
2023/09/14 03:59:20;;;;;;;3.63;1.58;;;;;;;23.75;46.16;102175.59;4989107;28;20030;-67
2023/09/14 04:01:46;;;;;;;3.35;1.30;;;;;;;23.73;45.71;102169.53;4988340;28;20447;-66
2023/09/14 04:04:11;;;;;;;4.18;1.50;;;;;;;23.73;45.93;102174.84;4970474;28;20076;-68
2023/09/14 04:06:36;;;;;;;3.97;1.60;;;;;;;23.73;45.97;102174.84;4988444;28;20080;-64
2023/09/14 04:09:03;;;;;;;6.63;1.85;;;;;;;23.73;45.38;102174.84;4988026;28;20026;-66
2023/09/14 04:11:28;;;;;;;3.45;1.60;;;;;;;23.72;46.06;102171.34;4988522;28;20038;-66
2023/09/14 04:13:54;;;;;;;4.25;1.60;;;;;;;23.72;45.48;102173.19;4988006;28;20057;-65
2023/09/14 04:16:19;;;;;;;6.60;1.85;;;;;;;23.71;45.94;102172.31;4987638;28;20038;-66
2023/09/14 04:18:45;;;;;;;4.97;1.67;;;;;;;23.70;45.94;102175.97;4988185;28;20030;-65
2023/09/14 04:21:10;;;;;;;3.28;1.23;;;;;;;23.70;45.32;102167.97;4987864;28;20027;-66
2023/09/14 04:23:35;;;;;;;4.05;1.73;;;;;;;23.71;45.54;102171.47;4987922;28;20027;-63
2023/09/14 04:26:01;;;;;;;3.35;1.50;;;;;;;23.69;45.49;102168.94;4987302;28;20065;-67
2023/09/14 04:28:26;;;;;;;4.00;1.70;;;;;;;23.70;45.68;102169.78;4987210;28;20442;-65
2023/09/14 04:30:53;;;;;;;4.00;1.48;;;;;;;23.69;45.81;102171.59;4987171;28;20065;-64
2023/09/14 04:33:19;;;;;;;5.43;1.80;;;;;;;23.68;45.21;102169.06;4987382;28;20104;-67
2023/09/14 04:35:45;;;;;;;4.30;1.85;;;;;;;23.67;45.64;102168.25;4987948;28;20604;-64
2023/09/14 04:38:11;;;;;;;3.55;1.85;;;;;;;23.68;45.14;102177.06;4987415;28;20038;-66
2023/09/14 04:40:47;;;;;;;3.40;1.52;;;;;;;23.65;45.75;102166.66;4987731;28;20946;-64
2023/09/14 04:43:14;;;;;;;4.88;1.70;;;;;;;23.67;45.26;102175.34;4987452;28;20069;-65
2023/09/14 04:45:39;;;;;;;3.42;1.45;;;;;;;23.63;45.49;102166.78;4987577;28;20041;-65
2023/09/14 04:48:05;;;;;;;3.30;1.33;;;;;;;23.66;45.46;102173.69;4987931;28;20030;-65
2023/09/14 04:50:30;;;;;;;3.20;1.40;;;;;;;23.66;45.06;102174.53;4987715;28;20445;-66
2023/09/14 04:52:56;;;;;;;4.43;1.60;;;;;;;23.65;45.06;102175.50;4987098;28;20046;-67
2023/09/14 04:55:22;;;;;;;4.47;1.27;;;;;;;23.65;45.25;102174.66;4987293;28;20387;-67
2023/09/14 04:57:47;;;;;;;3.92;1.60;;;;;;;23.65;45.34;102174.66;4987233;28;20044;-65
2023/09/14 05:00:13;;;;;;;4.03;1.65;;;;;;;23.64;45.48;102176.47;4969289;28;20042;-68
2023/09/14 05:02:39;;;;;;;4.53;1.38;;;;;;;23.63;45.37;102176.59;4987721;28;20038;-68
2023/09/14 05:05:06;;;;;;;4.57;1.63;;;;;;;23.62;45.37;102173.09;4987338;28;20085;-65
2023/09/14 05:07:31;;;;;;;5.07;1.73;;;;;;;23.62;45.07;102169.59;4987032;28;20827;-67
2023/09/14 05:09:57;;;;;;;4.40;1.70;;;;;;;23.62;45.33;102169.59;4985516;28;20952;-67
2023/09/14 05:12:22;;;;;;;5.32;1.50;;;;;;;23.63;45.15;102171.28;4986747;28;20057;-68
2023/09/14 05:14:47;;;;;;;4.60;1.48;;;;;;;23.60;45.39;102171.53;4985491;28;20117;-64
2023/09/14 05:17:13;;;;;;;4.03;1.65;;;;;;;23.62;45.20;102172.25;4987004;28;20526;-67
2023/09/14 05:19:42;;;;;;;3.55;1.50;;;;;;;23.60;45.03;102180.34;4986542;28;20120;-66
2023/09/14 05:22:08;;;;;;;4.03;1.48;;;;;;;23.60;45.42;102177.69;4986927;28;20089;-65
2023/09/14 05:24:34;;;;;;;4.40;1.50;;;;;;;23.60;45.24;102183.03;4986901;28;20767;-68
2023/09/14 05:26:59;;;;;;;3.60;1.40;;;;;;;23.61;45.35;102187.38;4986794;28;20035;-65
2023/09/14 05:29:25;;;;;;;3.30;1.23;;;;;;;23.61;45.43;102191.88;4986925;28;20046;-61
2023/09/14 05:31:50;;;;;;;5.43;2.20;;;;;;;23.56;43.20;102189.59;4987303;28;20034;-65
2023/09/14 05:34:15;;;;;;;3.40;1.50;;;;;;;23.55;45.01;102194.03;4986743;28;20503;-68
2023/09/14 05:36:41;;;;;;;3.13;1.33;;;;;;;23.53;45.42;102196.00;4987352;28;20034;-67
2023/09/14 05:39:08;;;;;;;3.40;1.70;;;;;;;23.51;45.79;102200.63;4986711;28;20267;-68
2023/09/14 05:41:34;;;;;;;3.38;1.40;;;;;;;23.48;45.57;102203.53;4986639;28;20035;-66
2023/09/14 05:43:59;;;;;;;3.88;1.75;;;;;;;23.46;46.05;102204.63;4986529;28;20463;-64
2023/09/14 05:46:24;;;;;;;3.85;1.50;;;;;;;23.43;45.87;102208.38;4986916;28;20031;-66
2023/09/14 05:48:50;;;;;;;3.92;1.42;;;;;;;23.45;46.31;102208.22;4986729;28;20041;-66
2023/09/14 05:51:15;;;;;;;3.35;1.40;;;;;;;23.45;46.44;102211.75;4986882;28;20401;-65
2023/09/14 05:53:40;;;;;;;4.60;1.60;;;;;;;23.45;46.08;102209.09;4986854;28;20038;-64
2023/09/14 05:56:06;;;;;;;4.10;1.60;;;;;;;23.42;46.19;102205.84;4986435;28;20370;-67
2023/09/14 05:58:31;;;;;;;5.13;2.40;;;;;;;23.43;46.57;102205.72;4986452;28;20077;-63
2023/09/14 06:00:57;;;;;;;3.38;1.50;;;;;;;23.42;46.60;102205.84;4986450;28;20035;-67
2023/09/14 06:03:22;;;;;;;3.70;1.45;;;;;;;23.42;46.61;102214.66;4986663;28;20557;-67
2023/09/14 06:05:47;;;;;;;4.55;1.55;;;;;;;23.41;46.46;102210.31;4986401;28;20030;-65
2023/09/14 06:08:12;;;;;;;3.67;2.10;;;;;;;23.41;46.32;102209.47;4968370;28;20034;-67
2023/09/14 06:10:38;;;;;;;4.60;1.70;;;;;;;23.40;46.50;102205.13;4986774;28;20306;-65
2023/09/14 06:13:04;;;;;;;4.40;1.55;;;;;;;23.40;47.00;102203.31;4988971;28;20279;-66
2023/09/14 06:15:29;;;;;;;4.80;1.50;;;;;;;23.39;46.87;102206.94;4989841;28;20080;-65
2023/09/14 06:17:54;;;;;;;4.43;1.67;;;;;;;23.38;46.90;102207.06;4990084;28;20030;-65
2023/09/14 06:20:20;;;;;;;5.93;1.80;;;;;;;23.38;46.99;102207.06;4990215;28;20030;-67
2023/09/14 06:22:45;;;;;;;4.25;1.65;;;;;;;23.39;46.71;102212.25;4990069;28;20268;-64
2023/09/14 06:25:10;;;;;;;4.23;1.57;;;;;;;23.38;46.92;102210.56;4989796;28;20030;-64
2023/09/14 06:27:36;;;;;;;6.28;1.90;;;;;;;23.38;47.12;102215.88;4989543;28;20279;-64
2023/09/14 06:30:02;;;;;;;5.13;1.63;;;;;;;23.39;47.20;102209.59;4989839;28;20030;-66
2023/09/14 06:32:28;;;;;;;4.57;1.77;;;;;;;23.40;47.31;102208.66;4989825;28;20113;-65
2023/09/14 06:34:53;;;;;;;4.50;1.58;;;;;;;23.41;47.42;102210.31;4989960;28;20111;-63
2023/09/14 06:37:20;;;;;;;4.13;1.35;;;;;;;23.43;47.42;102219.03;4989986;28;20026;-65
2023/09/14 06:39:45;;;;;;;4.15;1.95;;;;;;;23.42;47.74;102208.53;4989772;28;20035;-64
2023/09/14 06:42:11;;;;;;;4.07;1.60;;;;;;;23.45;47.40;102210.91;4989873;28;20038;-64
2023/09/14 06:44:36;;;;;;;6.50;1.75;;;;;;;23.44;47.43;102210.06;4990101;28;20042;-65
2023/09/14 06:47:01;;;;;;;5.00;1.90;;;;;;;23.47;47.91;102215.13;4990063;28;20033;-63
2023/09/14 06:49:27;;;;;;;6.05;2.03;;;;;;;23.47;47.67;102207.16;4990117;28;20383;-65
2023/09/14 06:51:52;;;;;;;4.15;1.67;;;;;;;23.51;47.97;102215.72;4990072;28;20483;-65
2023/09/14 06:54:17;;;;;;;5.32;2.08;;;;;;;23.50;47.94;102212.22;4989618;28;20026;-66
2023/09/14 06:56:43;;;;;;;6.50;1.70;;;;;;;23.52;47.78;102217.41;4971963;28;20038;-64
2023/09/14 06:59:08;;;;;;;4.55;2.00;;;;;;;23.52;47.93;102212.91;4989734;28;20041;-64
2023/09/14 07:01:35;;;;;;;4.63;1.58;;;;;;;23.52;48.36;102212.91;4989566;28;20701;-64
2023/09/14 07:04:01;;;;;;;6.72;1.90;;;;;;;23.55;48.27;102219.81;4989115;28;20078;-63
2023/09/14 07:06:26;;;;;;;4.72;1.70;;;;;;;23.53;48.58;102227.94;4989560;28;20467;-65
2023/09/14 07:08:51;;;;;;;4.13;1.70;;;;;;;23.53;48.22;102222.59;4989345;28;20038;-64
2023/09/14 07:11:17;;;;;;;5.05;1.88;;;;;;;23.55;48.58;102219.81;4989132;28;20041;-63
2023/09/14 07:13:42;;;;;;;4.30;1.70;;;;;;;23.55;48.01;102217.16;4989395;28;20029;-64
2023/09/14 07:16:08;;;;;;;5.25;1.58;;;;;;;23.55;48.80;102222.47;4986351;28;20038;-62
2023/09/14 07:18:34;;;;;;;4.97;1.63;;;;;;;23.53;48.72;102216.44;4987535;28;20109;-66
2023/09/14 07:21:02;;;;;;;6.45;2.20;;;;;;;23.47;48.56;102211.63;4988196;28;20084;-65
2023/09/14 07:23:28;;;;;;;4.72;2.15;;;;;;;23.43;48.87;102215.50;4988137;28;20034;-66
2023/09/14 07:25:53;;;;;;;5.43;1.95;;;;;;;23.42;48.99;102214.66;4988980;28;20045;-65
2023/09/14 07:28:20;;;;;;;5.40;2.47;;;;;;;23.41;48.99;102215.63;4988622;28;20026;-65
2023/09/14 07:30:48;;;;;;;7.95;1.83;;;;;;;23.42;49.19;102213.84;4988519;28;20022;-63
2023/09/14 07:33:14;;;;;;;5.32;1.90;;;;;;;23.42;49.09;102222.66;4988422;28;20503;-63
2023/09/14 07:35:42;;;;;;;4.47;1.60;;;;;;;23.43;49.58;102220.81;4988479;28;20489;-66
2023/09/14 07:38:09;;;;;;;5.13;1.88;;;;;;;23.46;49.20;102228.56;4988171;28;20041;-65
2023/09/14 07:40:34;;;;;;;4.10;1.80;;;;;;;23.49;49.49;102226.47;4988383;28;20060;-64
2023/09/14 07:43:00;;;;;;;7.32;2.40;;;;;;;23.54;48.96;102234.94;4988390;28;20117;-66
2023/09/14 07:45:25;;;;;;;5.20;2.13;;;;;;;23.57;49.21;102233.00;4988562;28;20371;-64
2023/09/14 07:47:50;;;;;;;5.72;2.10;;;;;;;23.58;49.14;102232.03;4987887;28;20030;-67
2023/09/14 07:50:16;;;;;;;10.20;1.95;;;;;;;23.60;49.21;102236.25;4988375;28;20035;-66
2023/09/14 07:52:41;;;;;;;5.25;1.73;;;;;;;23.57;49.57;102238.31;4988342;28;20839;-64
2023/09/14 07:55:07;;;;;;;3.70;1.63;;;;;;;23.57;49.28;102227.69;4987420;28;20041;-67
2023/09/14 07:57:32;;;;;;;6.05;2.00;;;;;;;23.59;49.63;102233.72;4988236;28;20038;-67
2023/09/14 07:59:59;;;;;;;4.80;1.80;;;;;;;23.62;49.00;102230.78;4987950;28;20061;-66
2023/09/14 08:02:27;;;;;;;4.70;1.80;;;;;;;23.62;49.21;102234.28;4987787;28;20118;-65
2023/09/14 08:04:52;;;;;;;5.53;1.90;;;;;;;23.70;48.93;102241.63;4987936;28;20035;-65
2023/09/14 08:07:18;;;;;;;4.18;1.80;;;;;;;23.79;49.11;102234.72;4969851;28;20038;-65
2023/09/14 08:09:52;;;;;;;5.03;2.08;;;;;;;23.83;48.72;102234.38;4987151;28;20034;-65
2023/09/14 08:12:18;;;;;;;4.72;2.20;;;;;;;23.90;48.58;102240.00;4986747;28;20034;-63
2023/09/14 08:14:43;;;;;;;5.50;2.08;;;;;;;23.90;48.43;102229.34;4988164;28;20034;-65
2023/09/14 08:17:08;;;;;;;5.82;2.58;;;;;;;23.89;48.76;102233.84;4988053;28;20550;-64
2023/09/14 08:19:34;;;;;;;6.35;2.22;;;;;;;23.92;48.74;102229.22;4987739;28;20041;-65
2023/09/14 08:21:59;;;;;;;6.43;2.67;;;;;;;23.91;48.95;102233.72;4987602;28;20467;-67
2023/09/14 08:24:24;;;;;;;4.93;1.98;;;;;;;23.91;48.96;102236.38;4987584;28;20030;-66
2023/09/14 08:26:51;;;;;;;5.43;2.05;;;;;;;23.89;49.14;102239.16;4987784;28;20030;-64
2023/09/14 08:29:16;;;;;;;4.88;1.70;;;;;;;23.89;49.23;102238.31;4987758;28;20105;-62
2023/09/14 08:31:43;;;;;;;6.72;2.15;;;;;;;23.82;49.21;102237.97;4984346;28;20125;-62
2023/09/14 08:34:09;;;;;;;5.40;2.00;;;;;;;23.76;49.23;102238.47;4985375;28;20152;-63
2023/09/14 08:36:34;;;;;;;4.32;2.10;;;;;;;23.73;49.46;102244.03;4987022;28;20550;-64
2023/09/14 08:39:00;;;;;;;5.03;2.30;;;;;;;23.70;49.54;102241.63;4986791;28;20038;-65
2023/09/14 08:41:37;;;;;;;7.15;2.40;;;;;;;23.71;50.00;102251.31;4987247;28;20040;-66
2023/09/14 08:44:04;;;;;;;4.20;1.92;;;;;;;23.74;49.76;102256.38;4987040;28;20030;-65
2023/09/14 08:46:32;;;;;;;6.88;2.20;;;;;;;23.71;49.93;102243.34;4988015;28;20034;-65
2023/09/14 08:48:59;;;;;;;6.15;2.28;;;;;;;23.72;49.91;102242.38;4986960;28;20534;-64
2023/09/14 08:51:25;;;;;;;4.72;1.95;;;;;;;23.73;49.78;102252.91;4986823;28;20035;-67
2023/09/14 08:53:52;;;;;;;5.22;2.35;;;;;;;23.73;49.80;102242.25;4986992;28;20034;-66
2023/09/14 08:56:19;;;;;;;5.88;2.50;;;;;;;23.73;50.17;102241.38;4986950;28;20074;-65
2023/09/14 08:58:45;;;;;;;6.07;2.08;;;;;;;23.74;49.92;102243.09;4986901;28;20467;-65
2023/09/14 09:01:13;;;;;;;5.03;2.20;;;;;;;23.75;49.82;102239.47;4987220;28;20038;-65
2023/09/14 09:03:39;;;;;;;6.53;2.70;;;;;;;23.77;49.82;102240.16;4987007;28;20394;-64
2023/09/14 09:06:04;;;;;;;8.30;2.70;;;;;;;23.75;49.65;102236.78;4987038;28;20432;-61
2023/09/14 09:08:30;;;;;;;5.32;2.78;;;;;;;23.73;49.43;102234.25;4986788;28;20038;-65
2023/09/14 09:10:56;;;;;;;5.47;2.53;;;;;;;23.75;49.32;102230.59;4986979;28;20041;-65
2023/09/14 09:13:22;;;;;;;6.28;2.60;;;;;;;23.75;49.78;102234.13;4987081;28;20046;-66
2023/09/14 09:15:48;;;;;;;5.13;2.28;;;;;;;23.76;49.73;102235.81;4987295;28;20463;-65
2023/09/14 09:18:13;;;;;;;7.28;2.70;;;;;;;23.77;49.45;102228.69;4986422;28;20030;-67
2023/09/14 09:20:40;;;;;;;5.47;2.22;;;;;;;23.77;49.56;102232.19;4987580;28;20037;-63
2023/09/14 09:23:07;;;;;;;7.18;2.78;;;;;;;23.78;49.40;102219.69;4987096;28;20108;-63
2023/09/14 09:25:47;;;;;;;5.88;2.30;;;;;;;23.77;49.86;102224.19;4986745;28;20062;-66
2023/09/14 09:28:14;;;;;;;6.78;2.40;;;;;;;23.78;49.37;102228.53;4986506;28;20057;-66
2023/09/14 09:30:39;;;;;;;5.88;2.45;;;;;;;23.79;49.73;102224.06;4986655;28;20045;-64
2023/09/14 09:33:05;;;;;;;6.45;2.40;;;;;;;23.81;49.78;102230.09;4986381;28;20394;-65
2023/09/14 09:35:31;;;;;;;6.45;2.45;;;;;;;23.82;49.87;102231.78;4986593;28;20475;-65
2023/09/14 09:38:10;;;;;;;5.70;2.47;;;;;;;23.82;49.31;102229.13;4986537;28;20031;-64
2023/09/14 09:40:40;;;;;;;4.80;2.42;;;;;;;23.82;49.76;102224.66;4986569;28;20031;-62
2023/09/14 09:43:07;;;;;;;4.50;2.60;;;;;;;23.85;49.75;102228.91;4986808;28;20026;-66
2023/09/14 09:45:33;;;;;;;6.05;2.03;;;;;;;23.84;49.70;102220.06;4986915;28;20390;-66
2023/09/14 09:48:01;;;;;;;5.60;2.33;;;;;;;23.85;49.24;102216.44;4990082;28;20044;-66
2023/09/14 09:50:27;;;;;;;6.10;2.22;;;;;;;23.85;49.30;102216.44;4990651;28;20116;-65
2023/09/14 09:52:52;;;;;;;5.40;2.17;;;;;;;23.86;49.30;102215.47;4990785;28;20503;-65
2023/09/14 09:55:20;;;;;;;6.90;2.42;;;;;;;23.87;49.31;102221.63;4990920;28;20042;-66
2023/09/14 09:57:51;;;;;;;5.50;2.30;;;;;;;23.85;49.89;102219.09;4990510;28;20045;-65
2023/09/14 10:00:19;;;;;;;7.28;2.30;;;;;;;23.88;49.44;102218.00;4990328;28;20026;-65
2023/09/14 10:02:45;;;;;;;4.40;2.08;;;;;;;23.90;49.37;102213.38;4989775;28;20041;-66
2023/09/14 10:05:10;;;;;;;6.13;2.60;;;;;;;23.89;48.92;102215.22;4989880;28;20471;-64
2023/09/14 10:07:40;;;;;;;5.05;2.28;;;;;;;23.88;49.19;102215.34;4989351;28;20109;-61
2023/09/14 10:10:10;;;;;;;8.50;3.95;;;;;;;23.85;46.83;102207.63;4989207;28;20053;-64
2023/09/14 10:12:40;;;;;;;8.70;4.18;;;;;;;23.91;46.42;102209.75;4989889;28;20032;-65
2023/09/14 10:15:07;;;;;;;7.55;3.08;;;;;;;23.96;47.63;102210.22;4989420;28;20038;-63
2023/09/14 10:17:33;;;;;;;7.22;2.72;;;;;;;23.96;47.68;102215.53;4971585;28;20038;-64
2023/09/14 10:20:00;;;;;;;6.80;2.65;;;;;;;23.95;48.30;102200.53;4989384;28;20038;-66
2023/09/14 10:22:26;;;;;;;5.60;2.13;;;;;;;23.92;48.24;102205.28;4989653;28;20038;-63
2023/09/14 10:24:53;;;;;;;5.95;2.38;;;;;;;23.91;48.83;102204.44;4989777;28;20109;-67
2023/09/14 10:27:19;;;;;;;5.90;2.42;;;;;;;23.90;48.42;102203.56;4989943;28;20034;-66
2023/09/14 10:29:44;;;;;;;6.43;2.30;;;;;;;23.89;48.96;102207.22;4989525;28;20042;-67
2023/09/14 10:32:11;;;;;;;5.40;2.55;;;;;;;23.87;48.31;102209.16;4989557;28;20061;-66
2023/09/14 10:34:39;;;;;;;5.82;2.22;;;;;;;23.87;48.51;102203.00;4989514;28;20050;-67
2023/09/14 10:37:04;;;;;;;4.97;2.25;;;;;;;23.89;48.58;102195.72;4989608;28;20041;-65
2023/09/14 10:39:30;;;;;;;5.10;2.20;;;;;;;24.02;47.96;102198.16;4987105;28;20387;-67
2023/09/14 10:41:56;;;;;;;5.00;2.08;;;;;;;24.12;48.13;102195.59;4988344;28;20402;-67
2023/09/14 10:44:22;;;;;;;5.15;1.98;;;;;;;24.21;47.78;102194.78;4989331;28;20034;-67
2023/09/14 10:46:52;;;;;;;5.40;2.25;;;;;;;24.21;47.79;102192.97;4970840;28;20026;-67
2023/09/14 10:49:24;;;;;;;4.55;2.10;;;;;;;24.20;48.01;102185.94;4989579;28;20130;-65
2023/09/14 10:51:49;;;;;;;4.75;2.05;;;;;;;24.25;47.51;102185.56;4989688;28;20434;-67
2023/09/14 10:54:15;;;;;;;5.32;2.28;;;;;;;24.23;48.07;102187.50;4989333;28;20057;-65
2023/09/14 10:56:40;;;;;;;4.40;2.05;;;;;;;24.24;47.47;102176.72;4988450;28;20035;-66
2023/09/14 10:59:09;;;;;;;6.78;2.28;;;;;;;24.20;48.27;102172.63;4986128;28;20070;-66
2023/09/14 11:01:49;;;;;;;5.90;2.13;;;;;;;24.15;48.24;102176.66;4986297;28;20038;-66
2023/09/14 11:04:17;;;;;;;6.22;2.25;;;;;;;24.09;48.12;102173.53;4987999;28;20391;-64
2023/09/14 11:06:44;;;;;;;5.30;2.25;;;;;;;24.06;48.36;102170.31;4988124;28;20100;-66
2023/09/14 11:09:09;;;;;;;6.20;2.00;;;;;;;24.05;48.69;102165.94;4987820;28;20475;-63
2023/09/14 11:11:39;;;;;;;6.43;2.20;;;;;;;24.03;48.50;102167.91;4988240;28;20034;-64
2023/09/14 11:14:08;;;;;;;5.93;2.22;;;;;;;24.02;48.89;102168.88;4988560;28;20527;-65
2023/09/14 11:16:41;;;;;;;6.53;2.03;;;;;;;24.03;49.18;102167.91;4988548;28;20065;-68
2023/09/14 11:19:07;;;;;;;7.38;2.30;;;;;;;24.04;48.89;102169.63;4970283;28;20397;-65